Main page
METAR-TAF:

METAR-TAF

Airports :

Birmingham, England

Birmingham Airport

latitude: 52-27N, longitude: 001-44W, elevation: 99 m

Current weather observation

The report was made 19 minutes ago, at 07:50 UTC
Wind 4 kt from the North/Northeast
Temperature 0°C
Humidity 100%
Pressure 1025 hPa
Visibility 10 km or more
no clouds below 1500 m and no cumulonimbus

METAR: EGBB 040750Z 03004KT CAVOK M00/M00 Q1025

Time: 08:09 (08:09 UTC)

Forecast

The report was made 1 hour and 30 minutes ago, at 06:39 UTC
Forecast valid from 04 at 06 UTC to 05 at 06 UTC
Wind 7 kt from the East
Visibility 10 km or more
no clouds below 1500 m and no cumulonimbus
Becoming
from 04 at 20 UTC to 04 at 23 UTC
Visibility: 6000 m
Few clouds at a height of 100 ft
Probability 40%
from 05 at 02 UTC to 05 at 06 UTC
Visibility: 0900 m
Broken clouds at a height of 100 ft
freezing fog

TAF: EGBB 040639Z 0406/0506 08007KT CAVOK BECMG 0420/0423 6000 FEW001 PROB40 0502/0506 0900 FZFG BKN001

Weather observations and forecasts of more than 4000 airports (METAR and TAF reports).

The available stations are represented by yellow and red dots on the map.

Hover mouse over dot to see the name of the station.

Then click to see weather observations and forecasts.

To change the map : click on the green buttons with a black cross to zoom in, on the green button with a dash to zoom out, or on the green arrows for adjacent maps.


METAR-TAF: